Time;durP1;ratioP1;P1;durP2;ratioP2;P2;SDS_P1;SDS_P2;PMS_P1;PMS_P2;Temp;Humidity;BMP_temperature;BMP_pressure;BME280_temperature;BME280_humidity;BME280_pressure;Samples;Min_cycle;Max_cycle;Signal;HPM_P1;HPM_P2
2023/09/12 00:01:20;;;;;;;12.38;8.98;;;;;;;;;;5048675;28;20128;-68
2023/09/12 00:03:47;;;;;;;11.20;8.52;;;;;;;;;;5048487;28;20057;-68
2023/09/12 00:06:13;;;;;;;11.80;8.32;;;;;;;;;;5049038;28;20487;-68
2023/09/12 00:08:40;;;;;;;14.10;8.95;;;;;;;;;;5049230;28;20136;-68
2023/09/12 00:11:10;;;;;;;11.73;8.65;;;;;;;;;;5048917;28;20055;-68
2023/09/12 00:13:38;;;;;;;12.57;8.70;;;;;;;;;;5048540;28;20051;-68
2023/09/12 00:16:06;;;;;;;11.27;8.43;;;;;;;;;;5049379;28;20056;-68
2023/09/12 00:18:34;;;;;;;11.18;8.85;;;;;;;;;;5051774;28;20538;-68
2023/09/12 00:21:01;;;;;;;10.85;9.15;;;;;;;;;;5052411;28;20150;-68
2023/09/12 00:23:28;;;;;;;11.85;8.73;;;;;;;;;;5051755;28;20052;-68
2023/09/12 00:25:54;;;;;;;11.98;8.95;;;;;;;;;;5052159;28;20136;-68
2023/09/12 00:28:21;;;;;;;11.35;8.73;;;;;;;;;;5051865;28;20132;-68
2023/09/12 00:30:48;;;;;;;9.15;8.23;;;;;;;;;;5051666;28;20132;-68
2023/09/12 00:33:16;;;;;;;12.23;9.48;;;;;;;;;;5051223;28;20045;-68
2023/09/12 00:35:44;;;;;;;17.20;9.73;;;;;;;;;;5051967;28;20055;-68
2023/09/12 00:38:10;;;;;;;10.25;8.77;;;;;;;;;;5051875;28;20131;-68
2023/09/12 00:40:37;;;;;;;10.52;8.60;;;;;;;;;;5051592;28;20055;-68
2023/09/12 00:43:04;;;;;;;13.27;9.23;;;;;;;;;;5051374;28;20053;-68
2023/09/12 00:45:31;;;;;;;12.20;9.45;;;;;;;;;;5051574;28;20072;-68
2023/09/12 00:48:00;;;;;;;18.38;9.52;;;;;;;;;;5051436;28;20143;-68
2023/09/12 00:50:29;;;;;;;12.38;9.15;;;;;;;;;;5051567;28;20580;-68
2023/09/12 00:52:56;;;;;;;14.65;9.43;;;;;;;;;;5051388;28;20052;-68
2023/09/12 00:55:22;;;;;;;10.88;9.15;;;;;;;;;;5051283;28;20136;-68
2023/09/12 00:57:50;;;;;;;14.65;9.65;;;;;;;;;;5051748;28;20071;-68
2023/09/12 01:00:17;;;;;;;14.73;9.02;;;;;;;;;;5051075;28;20455;-68
2023/09/12 01:02:46;;;;;;;12.48;9.02;;;;;;;;;;5051052;28;20136;-68
2023/09/12 01:05:15;;;;;;;10.68;9.00;;;;;;;;;;5051502;28;20135;-68
2023/09/12 01:07:44;;;;;;;13.38;9.10;;;;;;;;;;5051378;28;20048;-68
2023/09/12 01:10:11;;;;;;;16.05;9.90;;;;;;;;;;5051127;28;20152;-68
2023/09/12 01:12:38;;;;;;;13.38;9.45;;;;;;;;;;5050404;28;20049;-68
2023/09/12 01:15:13;;;;;;;13.68;10.00;;;;;;;;;;5051498;28;20422;-68
2023/09/12 01:17:40;;;;;;;12.70;9.13;;;;;;;;;;5051134;28;20063;-68
2023/09/12 01:20:11;;;;;;;13.05;10.13;;;;;;;;;;5051351;28;20067;-68
2023/09/12 01:22:59;;;;;;;11.73;9.38;;;;;;;;;;5050633;28;20049;-68
2023/09/12 01:25:55;;;;;;;14.38;9.68;;;;;;;;;;5050832;28;20053;-68
2023/09/12 01:28:25;;;;;;;13.35;10.70;;;;;;;;;;5051108;28;20055;-68
2023/09/12 01:30:52;;;;;;;13.50;9.70;;;;;;;;;;5051248;28;20467;-68
2023/09/12 01:33:20;;;;;;;14.48;10.50;;;;;;;;;;5050635;28;20045;-68
2023/09/12 01:35:47;;;;;;;14.95;10.93;;;;;;;;;;5051185;28;20223;-68
2023/09/12 01:38:14;;;;;;;13.00;10.32;;;;;;;;;;5051426;28;20056;-68
2023/09/12 01:40:46;;;;;;;16.75;11.00;;;;;;;;;;5050958;28;20128;-68
2023/09/12 01:43:16;;;;;;;;;;;;;;;;;;5051078;28;20408;-68
2023/09/12 01:45:46;;;;;;;12.02;9.95;;;;;;;;;;5050819;28;20039;-68
2023/09/12 01:48:17;;;;;;;13.38;10.15;;;;;;;;;;5050386;28;20049;-68
2023/09/12 01:50:44;;;;;;;12.88;10.57;;;;;;;;;;5060139;28;20127;-68
2023/09/12 01:53:14;;;;;;;14.30;10.57;;;;;;;;;;5069484;28;20131;-68
2023/09/12 01:55:41;;;;;;;15.75;10.77;;;;;;;;;;5070360;28;20502;-68
2023/09/12 01:58:08;;;;;;;14.93;11.05;;;;;;;;;;5070234;28;20132;-68
2023/09/12 02:00:35;;;;;;;15.82;12.05;;;;;;;;;;5070185;28;20127;-68
2023/09/12 02:03:04;;;;;;;15.02;11.38;;;;;;;;;;5070087;28;20053;-68
2023/09/12 02:05:31;;;;;;;18.30;11.23;;;;;;;;;;5070135;28;20147;-68
2023/09/12 02:08:00;;;;;;;16.48;11.15;;;;;;;;;;5069905;28;20123;-68
2023/09/12 02:10:26;;;;;;;14.13;10.70;;;;;;;;;;5069740;28;20068;-68
2023/09/12 02:12:53;;;;;;;14.75;11.00;;;;;;;;;;5069620;28;20131;-68
2023/09/12 02:15:19;;;;;;;14.52;10.23;;;;;;;;;;5069747;28;20053;-68
2023/09/12 02:17:46;;;;;;;14.73;10.77;;;;;;;;;;5062826;28;20127;-68
2023/09/12 02:20:14;;;;;;;12.77;10.40;;;;;;;;;;5049663;28;20237;-68
2023/09/12 02:22:41;;;;;;;12.57;10.40;;;;;;;;;;5049551;28;20483;-68
2023/09/12 02:25:09;;;;;;;16.98;11.38;;;;;;;;;;5049939;28;20487;-68
2023/09/12 02:27:35;;;;;;;16.02;11.38;;;;;;;;;;5049214;28;20059;-68
2023/09/12 02:30:02;;;;;;;16.20;11.93;;;;;;;;;;5069536;28;20547;-68
2023/09/12 02:32:29;;;;;;;13.25;11.15;;;;;;;;;;5067151;28;20058;-68
2023/09/12 02:34:57;;;;;;;13.80;10.48;;;;;;;;;;5069685;28;20048;-68
2023/09/12 02:37:25;;;;;;;16.08;10.82;;;;;;;;;;5069575;28;20488;-69
2023/09/12 02:39:51;;;;;;;13.45;11.10;;;;;;;;;;5069176;28;20048;-68
2023/09/12 02:42:18;;;;;;;17.67;11.30;;;;;;;;;;5068831;28;20144;-68
2023/09/12 02:44:44;;;;;;;15.93;12.02;;;;;;;;;;5068405;28;20219;-68
2023/09/12 02:47:11;;;;;;;19.35;10.90;;;;;;;;;;5029459;28;20137;-68
2023/09/12 02:49:37;;;;;;;14.43;10.73;;;;;;;;;;5029243;28;20133;-68
2023/09/12 02:52:04;;;;;;;15.60;10.98;;;;;;;;;;5029097;28;20059;-68
2023/09/12 02:54:32;;;;;;;18.48;11.13;;;;;;;;;;5029537;28;20555;-68
2023/09/12 02:56:59;;;;;;;16.77;11.43;;;;;;;;;;5029721;28;20055;-68
2023/09/12 03:02:01;;;;;;;15.95;10.90;;;;;;;;;;5048411;28;20421;-68
2023/09/12 03:04:28;;;;;;;13.10;10.88;;;;;;;;;;5049003;28;20174;-69
2023/09/12 03:06:55;;;;;;;15.15;11.00;;;;;;;;;;5049847;28;20044;-68
2023/09/12 03:09:22;;;;;;;13.82;11.15;;;;;;;;;;5049735;28;20403;-69
2023/09/12 03:11:50;;;;;;;14.95;11.65;;;;;;;;;;5049238;28;20083;-68
2023/09/12 03:14:17;;;;;;;15.73;11.23;;;;;;;;;;5050086;28;20413;-69
2023/09/12 03:16:43;;;;;;;13.02;11.00;;;;;;;;;;5049612;28;20132;-69
2023/09/12 03:19:10;;;;;;;15.70;10.75;;;;;;;;;;5048468;28;20396;-69
2023/09/12 03:21:36;;;;;;;16.83;11.15;;;;;;;;;;5048894;28;20056;-68
2023/09/12 03:24:03;;;;;;;16.60;11.85;;;;;;;;;;5048526;28;20055;-71
2023/09/12 03:26:30;;;;;;;16.13;11.15;;;;;;;;;;5049692;28;20383;-70
2023/09/12 03:28:58;;;;;;;14.20;11.43;;;;;;;;;;5049268;28;20143;-69
2023/09/12 03:31:25;;;;;;;12.70;11.13;;;;;;;;;;5040038;28;20045;-71
2023/09/12 03:33:52;;;;;;;13.13;10.38;;;;;;;;;;5048857;28;20049;-69
2023/09/12 03:36:18;;;;;;;14.23;11.25;;;;;;;;;;5048982;28;20569;-70
2023/09/12 03:38:45;;;;;;;14.65;10.27;;;;;;;;;;5048973;28;20137;-70
2023/09/12 03:41:12;;;;;;;12.65;10.07;;;;;;;;;;5049017;28;20304;-71
2023/09/12 03:43:38;;;;;;;14.60;10.50;;;;;;;;;;5049020;28;20048;-70
2023/09/12 03:46:06;;;;;;;17.13;10.60;;;;;;;;;;5049443;28;20136;-70
2023/09/12 03:48:33;;;;;;;16.75;10.00;;;;;;;;;;5049376;28;20045;-70
2023/09/12 03:51:00;;;;;;;18.08;10.40;;;;;;;;;;5049206;28;20132;-70
2023/09/12 03:53:27;;;;;;;17.55;10.68;;;;;;;;;;5052763;28;20048;-70
2023/09/12 03:55:54;;;;;;;16.48;10.68;;;;;;;;;;5052917;28;20115;-70
2023/09/12 03:58:21;;;;;;;17.10;10.63;;;;;;;;;;5053007;28;20077;-71
2023/09/12 04:00:47;;;;;;;14.35;10.45;;;;;;;;;;5052803;28;20128;-70
2023/09/12 04:03:16;;;;;;;14.40;10.68;;;;;;;;;;5052530;28;20485;-71
2023/09/12 04:05:42;;;;;;;12.32;9.65;;;;;;;;;;5052448;28;20532;-71
2023/09/12 04:08:09;;;;;;;13.68;10.00;;;;;;;;;;5052875;28;20124;-71
2023/09/12 04:10:36;;;;;;;12.57;10.10;;;;;;;;;;5052779;28;20132;-70
2023/09/12 04:13:02;;;;;;;17.27;9.80;;;;;;;;;;5052316;28;20564;-71
2023/09/12 04:15:29;;;;;;;12.48;10.18;;;;;;;;;;5052587;28;20129;-71
2023/09/12 04:17:55;;;;;;;12.13;10.45;;;;;;;;;;5052557;28;20112;-70
2023/09/12 04:20:23;;;;;;;11.98;10.30;;;;;;;;;;5052590;28;20054;-70
2023/09/12 04:22:50;;;;;;;17.42;10.35;;;;;;;;;;5051898;28;20060;-70
2023/09/12 04:25:19;;;;;;;13.77;10.80;;;;;;;;;;5052713;28;20076;-70
2023/09/12 04:27:46;;;;;;;18.85;11.70;;;;;;;;;;5052616;28;20128;-70
2023/09/12 04:30:13;;;;;;;15.13;10.82;;;;;;;;;;5052360;28;20467;-70
2023/09/12 04:32:40;;;;;;;17.23;12.00;;;;;;;;;;5052354;28;20472;-70
2023/09/12 04:35:08;;;;;;;13.63;11.57;;;;;;;;;;5053095;28;20136;-71
2023/09/12 04:37:36;;;;;;;16.67;11.60;;;;;;;;;;5052535;28;20486;-71
2023/09/12 04:40:05;;;;;;;17.90;11.68;;;;;;;;;;5052155;28;20132;-70
2023/09/12 04:42:31;;;;;;;17.55;11.93;;;;;;;;;;5051941;28;20053;-70
2023/09/12 04:44:58;;;;;;;17.08;11.90;;;;;;;;;;5052101;28;20136;-70
2023/09/12 04:47:25;;;;;;;18.13;12.40;;;;;;;;;;5051614;28;20045;-70
2023/09/12 04:49:51;;;;;;;19.20;12.70;;;;;;;;;;5052181;28;20063;-71
2023/09/12 04:52:18;;;;;;;16.00;12.10;;;;;;;;;;5051728;28;20131;-71
2023/09/12 04:54:46;;;;;;;17.02;12.55;;;;;;;;;;5051835;28;20049;-70
2023/09/12 04:57:12;;;;;;;17.65;12.50;;;;;;;;;;5051767;28;20498;-70
2023/09/12 04:59:39;;;;;;;16.67;12.45;;;;;;;;;;5051678;28;20119;-70
2023/09/12 05:02:06;;;;;;;14.35;12.25;;;;;;;;;;5050829;28;20136;-70
2023/09/12 05:04:32;;;;;;;16.70;11.70;;;;;;;;;;5051858;28;20052;-70
2023/09/12 05:06:59;;;;;;;15.40;11.73;;;;;;;;;;5051674;28;20049;-71
2023/09/12 05:09:26;;;;;;;18.02;11.48;;;;;;;;;;5051725;28;20071;-71
2023/09/12 05:11:54;;;;;;;18.92;11.65;;;;;;;;;;5051278;28;20131;-71
2023/09/12 05:14:20;;;;;;;16.70;11.93;;;;;;;;;;5051392;28;20762;-71
2023/09/12 05:16:47;;;;;;;14.30;12.30;;;;;;;;;;5051527;28;20099;-70
2023/09/12 05:19:14;;;;;;;17.90;12.38;;;;;;;;;;5052175;28;20041;-70
2023/09/12 05:21:40;;;;;;;16.25;12.07;;;;;;;;;;5051908;28;20049;-70
2023/09/12 05:24:07;;;;;;;16.83;12.38;;;;;;;;;;5051362;28;20056;-70
2023/09/12 05:26:34;;;;;;;18.50;13.13;;;;;;;;;;5051990;28;20076;-70
2023/09/12 05:29:02;;;;;;;20.02;13.82;;;;;;;;;;5051755;28;20051;-71
2023/09/12 05:31:29;;;;;;;17.27;12.90;;;;;;;;;;5051960;28;20127;-71
2023/09/12 05:33:55;;;;;;;16.98;12.45;;;;;;;;;;5051496;28;20056;-70
2023/09/12 05:36:22;;;;;;;16.42;11.35;;;;;;;;;;5052132;28;20556;-70
2023/09/12 05:38:49;;;;;;;16.35;11.75;;;;;;;;;;5051774;28;20136;-70
2023/09/12 05:41:15;;;;;;;18.58;12.38;;;;;;;;;;5051689;28;20087;-70
2023/09/12 05:43:42;;;;;;;16.70;11.68;;;;;;;;;;5051241;28;20045;-70
2023/09/12 05:46:10;;;;;;;17.73;11.80;;;;;;;;;;5051892;28;20053;-70
2023/09/12 05:48:36;;;;;;;17.50;12.73;;;;;;;;;;5051606;28;20055;-70
2023/09/12 05:51:03;;;;;;;18.80;12.90;;;;;;;;;;5051565;28;20063;-70
2023/09/12 05:53:30;;;;;;;17.00;12.65;;;;;;;;;;5051033;28;20052;-70
2023/09/12 05:55:57;;;;;;;16.40;12.77;;;;;;;;;;5051217;28;20049;-70
2023/09/12 05:58:23;;;;;;;19.33;13.07;;;;;;;;;;5051483;28;20080;-71
2023/09/12 06:00:50;;;;;;;19.23;12.90;;;;;;;;;;5051390;28;20486;-70
2023/09/12 06:03:18;;;;;;;21.15;14.30;;;;;;;;;;5051151;28;20132;-71
2023/09/12 06:05:45;;;;;;;18.85;12.43;;;;;;;;;;5051573;28;20132;-71
2023/09/12 06:08:11;;;;;;;20.95;12.73;;;;;;;;;;5051693;28;20624;-71
2023/09/12 06:10:38;;;;;;;17.35;11.70;;;;;;;;;;5050797;28;20242;-71
2023/09/12 06:13:05;;;;;;;15.68;11.85;;;;;;;;;;5050805;28;20102;-71
2023/09/12 06:15:31;;;;;;;18.00;13.05;;;;;;;;;;5050350;28;20045;-70
2023/09/12 06:17:58;;;;;;;19.15;14.07;;;;;;;;;;5051029;28;20075;-71
2023/09/12 06:20:26;;;;;;;17.65;12.75;;;;;;;;;;5051290;28;20499;-71
2023/09/12 06:22:52;;;;;;;18.42;13.40;;;;;;;;;;5050809;28;20140;-71
2023/09/12 06:25:19;;;;;;;16.17;13.50;;;;;;;;;;5045063;28;20053;-71
2023/09/12 06:27:46;;;;;;;21.20;12.77;;;;;;;;;;5049913;28;20047;-71
2023/09/12 06:30:13;;;;;;;13.70;12.20;;;;;;;;;;5040505;28;20485;-70
2023/09/12 06:32:40;;;;;;;15.75;11.88;;;;;;;;;;5047977;28;20059;-71
2023/09/12 06:35:10;;;;;;;20.00;14.10;;;;;;;;;;5049694;28;20055;-71
2023/09/12 06:37:38;;;;;;;16.20;12.88;;;;;;;;;;5047896;28;20513;-70
2023/09/12 06:40:06;;;;;;;20.95;12.60;;;;;;;;;;5045101;28;20076;-69
2023/09/12 06:42:32;;;;;;;16.25;12.52;;;;;;;;;;5044291;28;20136;-71
2023/09/12 06:44:59;;;;;;;18.95;12.30;;;;;;;;;;5027260;28;20049;-71
2023/09/12 06:47:26;;;;;;;16.63;11.73;;;;;;;;;;5033114;28;20048;-70
2023/09/12 06:49:52;;;;;;;14.45;12.02;;;;;;;;;;5037646;28;20176;-71
2023/09/12 06:52:19;;;;;;;16.50;12.15;;;;;;;;;;5048394;28;20391;-71
2023/09/12 06:54:47;;;;;;;17.55;11.95;;;;;;;;;;5049091;28;20045;-70
2023/09/12 06:57:13;;;;;;;13.60;11.18;;;;;;;;;;5049176;28;20075;-71
2023/09/12 06:59:40;;;;;;;16.63;12.45;;;;;;;;;;5041229;28;20045;-71
2023/09/12 07:02:07;;;;;;;17.42;12.23;;;;;;;;;;5042879;28;21482;-71
2023/09/12 07:04:33;;;;;;;18.88;12.32;;;;;;;;;;5047433;28;20071;-70
2023/09/12 07:07:00;;;;;;;15.50;11.65;;;;;;;;;;5029378;28;20049;-71
2023/09/12 07:09:27;;;;;;;25.23;12.73;;;;;;;;;;5041191;28;20087;-72
2023/09/12 07:11:55;;;;;;;14.82;11.80;;;;;;;;;;5038036;28;20497;-69
2023/09/12 07:14:21;;;;;;;21.98;12.60;;;;;;;;;;5044300;28;20114;-70
2023/09/12 07:16:48;;;;;;;20.40;12.23;;;;;;;;;;5037511;28;20145;-71
2023/09/12 07:19:15;;;;;;;14.07;11.43;;;;;;;;;;5039755;28;20132;-71
2023/09/12 07:21:41;;;;;;;18.35;11.45;;;;;;;;;;5040629;28;20114;-72
2023/09/12 07:24:08;;;;;;;13.88;10.98;;;;;;;;;;5046390;28;20103;-70
2023/09/12 07:26:35;;;;;;;15.38;10.90;;;;;;;;;;5036246;28;20049;-71
2023/09/12 07:29:05;;;;;;;17.95;11.68;;;;;;;;;;5043354;28;20139;-71
2023/09/12 07:31:31;;;;;;;14.02;11.43;;;;;;;;;;5048385;28;20095;-72
2023/09/12 07:33:58;;;;;;;14.95;11.60;;;;;;;;;;5049708;28;20469;-72
2023/09/12 07:36:25;;;;;;;16.33;11.02;;;;;;;;;;5041687;28;20123;-72
2023/09/12 07:38:52;;;;;;;13.85;10.23;;;;;;;;;;5050279;28;20125;-69
2023/09/12 07:41:19;;;;;;;15.23;9.73;;;;;;;;;;5050236;28;20053;-72
2023/09/12 07:43:45;;;;;;;17.05;11.00;;;;;;;;;;5050945;28;20053;-72
2023/09/12 07:46:13;;;;;;;16.92;11.07;;;;;;;;;;5046254;28;20081;-71
2023/09/12 07:48:40;;;;;;;18.40;10.90;;;;;;;;;;5046358;28;20505;-73
2023/09/12 07:51:14;;;;;;;20.27;10.93;;;;;;;;;;5039469;28;20052;-72
2023/09/12 07:53:40;;;;;;;15.48;9.73;;;;;;;;;;5044414;28;20049;-70
2023/09/12 07:56:10;;;;;;;15.02;10.40;;;;;;;;;;5040276;28;20133;-72
2023/09/12 07:58:36;;;;;;;16.58;10.60;;;;;;;;;;5049576;28;20045;-71
2023/09/12 08:01:06;;;;;;;15.93;11.13;;;;;;;;;;5043195;28;20111;-71
2023/09/12 08:03:34;;;;;;;19.85;10.88;;;;;;;;;;5047178;28;20051;-73
2023/09/12 08:06:01;;;;;;;16.95;10.98;;;;;;;;;;5046242;28;20148;-71
2023/09/12 08:08:27;;;;;;;13.80;10.65;;;;;;;;;;5051616;28;20049;-71
2023/09/12 08:10:54;;;;;;;14.85;11.13;;;;;;;;;;5051044;28;20475;-71
2023/09/12 08:13:21;;;;;;;23.58;11.85;;;;;;;;;;5049968;28;20084;-70
2023/09/12 08:15:47;;;;;;;20.50;11.77;;;;;;;;;;5046501;28;20053;-71
2023/09/12 08:18:15;;;;;;;14.80;11.73;;;;;;;;;;5047733;28;20140;-71
2023/09/12 08:20:43;;;;;;;17.80;11.80;;;;;;;;;;5048912;28;20099;-71
2023/09/12 08:23:10;;;;;;;17.30;11.35;;;;;;;;;;5038720;28;20128;-71
2023/09/12 08:25:36;;;;;;;17.90;12.13;;;;;;;;;;5051313;28;20053;-71
2023/09/12 08:28:03;;;;;;;19.85;11.98;;;;;;;;;;5046563;28;20040;-70
2023/09/12 08:30:30;;;;;;;16.80;10.77;;;;;;;;;;5049713;28;20134;-71
2023/09/12 08:32:57;;;;;;;22.02;11.45;;;;;;;;;;5050111;28;20091;-71
2023/09/12 08:35:23;;;;;;;14.77;10.30;;;;;;;;;;5048018;28;20077;-70
2023/09/12 08:37:51;;;;;;;19.10;11.20;;;;;;;;;;5042866;28;20072;-71
2023/09/12 08:40:18;;;;;;;17.40;10.48;;;;;;;;;;5046188;28;20050;-72
2023/09/12 08:42:46;;;;;;;19.90;11.38;;;;;;;;;;5043193;28;20041;-72
2023/09/12 08:45:14;;;;;;;15.40;10.45;;;;;;;;;;5043873;28;20064;-71
2023/09/12 08:47:42;;;;;;;15.30;10.30;;;;;;;;;;5038409;28;20037;-72
2023/09/12 08:50:12;;;;;;;15.48;9.35;;;;;;;;;;5047086;28;20041;-72
2023/09/12 08:52:39;;;;;;;13.75;9.98;;;;;;;;;;5046005;28;20044;-71
2023/09/12 08:55:07;;;;;;;16.20;9.82;;;;;;;;;;5042634;28;20144;-71
2023/09/12 08:57:37;;;;;;;13.63;9.40;;;;;;;;;;5047646;28;20079;-71
2023/09/12 09:00:06;;;;;;;13.00;8.65;;;;;;;;;;5064285;22;21902;-86
2023/09/12 09:02:34;;;;;;;11.40;9.27;;;;;;;;;;5061098;28;20073;-84
2023/09/12 09:05:04;;;;;;;14.40;9.52;;;;;;;;;;5047226;28;20060;-86
2023/09/12 09:07:33;;;;;;;12.35;9.55;;;;;;;;;;5057833;28;20140;-85
2023/09/12 09:10:02;;;;;;;14.23;9.60;;;;;;;;;;5058173;28;20226;-84
2023/09/12 09:12:31;;;;;;;13.02;9.38;;;;;;;;;;5043937;28;20046;-84
2023/09/12 09:14:59;;;;;;;12.57;9.30;;;;;;;;;;5035873;28;20045;-84
2023/09/12 09:17:27;;;;;;;13.57;9.77;;;;;;;;;;5029532;28;20088;-83
2023/09/12 09:19:54;;;;;;;11.32;8.70;;;;;;;;;;5033051;28;20080;-84
2023/09/12 09:22:22;;;;;;;12.05;8.38;;;;;;;;;;5032352;28;20046;-82
2023/09/12 09:24:49;;;;;;;14.18;10.10;;;;;;;;;;5027407;28;20485;-83
2023/09/12 09:27:35;;;;;;;15.43;9.50;;;;;;;;;;5035840;28;20076;-83
2023/09/12 09:30:03;;;;;;;12.25;9.02;;;;;;;;;;5026804;28;20049;-84
2023/09/12 09:32:30;;;;;;;13.77;9.25;;;;;;;;;;5040693;28;20045;-83
2023/09/12 09:34:56;;;;;;;15.35;8.90;;;;;;;;;;5027321;28;20041;-83
2023/09/12 09:37:24;;;;;;;11.13;8.65;;;;;;;;;;5040272;28;20148;-83
2023/09/12 09:39:52;;;;;;;14.43;8.27;;;;;;;;;;5041085;28;20041;-83
2023/09/12 09:42:18;;;;;;;12.82;9.57;;;;;;;;;;5042673;28;20535;-83
2023/09/12 09:44:48;;;;;;;11.48;8.88;;;;;;;;;;5041894;28;20140;-86
2023/09/12 09:47:14;;;;;;;13.25;8.55;;;;;;;;;;5037561;28;20119;-86
2023/09/12 09:49:41;;;;;;;11.90;8.88;;;;;;;;;;5033859;28;20038;-86
2023/09/12 09:52:08;;;;;;;10.73;8.50;;;;;;;;;;5038582;28;20115;-86
2023/09/12 09:54:35;;;;;;;9.23;7.90;;;;;;;;;;5044884;28;20527;-86
2023/09/12 09:57:02;;;;;;;12.00;7.97;;;;;;;;;;5040208;28;20053;-86
2023/09/12 09:59:29;;;;;;;12.68;8.60;;;;;;;;;;5035565;28;20140;-88
2023/09/12 10:02:00;;;;;;;13.07;8.48;;;;;;;;;;5040042;28;20128;-84
2023/09/12 10:04:29;;;;;;;14.93;9.07;;;;;;;;;;5040305;28;20463;-85
2023/09/12 10:06:58;;;;;;;8.85;7.30;;;;;;;;;;5040938;28;20087;-85
2023/09/12 10:09:27;;;;;;;15.55;8.77;;;;;;;;;;5041161;28;20064;-84
2023/09/12 10:11:56;;;;;;;9.95;7.85;;;;;;;;;;5024344;28;20498;-84
2023/09/12 10:14:24;;;;;;;12.93;7.03;;;;;;;;;;5039336;28;20091;-84
2023/09/12 10:16:53;;;;;;;10.88;7.80;;;;;;;;;;5040296;28;20127;-84
2023/09/12 10:19:24;;;;;;;8.80;7.00;;;;;;;;;;5040829;28;20152;-85
2023/09/12 10:21:56;;;;;;;11.55;7.38;;;;;;;;;;5041085;28;20120;-85
2023/09/12 10:24:23;;;;;;;13.80;8.52;;;;;;;;;;5042964;28;20518;-85
2023/09/12 10:26:51;;;;;;;12.27;9.52;;;;;;;;;;5042369;28;20077;-86
2023/09/12 10:29:18;;;;;;;12.85;8.63;;;;;;;;;;5040654;28;20124;-87
2023/09/12 10:31:44;;;;;;;13.25;8.30;;;;;;;;;;5043492;28;20073;-86
2023/09/12 10:34:14;;;;;;;11.98;9.15;;;;;;;;;;5044152;28;20042;-87
2023/09/12 10:36:43;;;;;;;12.82;8.65;;;;;;;;;;5045720;28;20052;-86
2023/09/12 10:39:12;;;;;;;12.38;8.80;;;;;;;;;;5043315;28;20050;-86
2023/09/12 10:41:40;;;;;;;13.75;7.88;;;;;;;;;;5042617;28;20063;-87
2023/09/12 10:44:11;;;;;;;13.32;8.23;;;;;;;;;;5045480;28;20049;-86
2023/09/12 10:46:39;;;;;;;10.88;8.18;;;;;;;;;;5046287;28;20061;-86
2023/09/12 10:49:08;;;;;;;10.45;8.18;;;;;;;;;;5045857;28;20057;-86
2023/09/12 10:51:39;;;;;;;15.10;8.00;;;;;;;;;;5045387;28;20053;-86
2023/09/12 10:54:08;;;;;;;11.90;8.73;;;;;;;;;;5044594;28;20134;-87
2023/09/12 10:56:35;;;;;;;11.50;8.23;;;;;;;;;;5047156;28;20045;-87
2023/09/12 10:59:14;;;;;;;13.48;9.07;;;;;;;;;;5048390;28;20049;-85
2023/09/12 11:01:45;;;;;;;10.10;8.48;;;;;;;;;;5048286;28;20520;-86
2023/09/12 11:04:38;;;;;;;9.95;8.07;;;;;;;;;;5047993;28;20060;-86
2023/09/12 11:07:45;;;;;;;12.30;8.50;;;;;;;;;;5008777;28;20080;-85
2023/09/12 11:10:21;;;;;;;11.23;8.38;;;;;;;;;;5043355;28;20584;-85
2023/09/12 11:12:50;;;;;;;12.30;8.00;;;;;;;;;;5042695;28;20053;-86
2023/09/12 11:15:17;;;;;;;10.45;7.82;;;;;;;;;;5042366;28;20060;-86
2023/09/12 11:17:45;;;;;;;9.07;8.18;;;;;;;;;;5041229;28;20064;-86
2023/09/12 11:20:13;;;;;;;9.75;8.10;;;;;;;;;;5040801;28;20134;-86
2023/09/12 11:22:41;;;;;;;13.02;8.52;;;;;;;;;;5041633;28;20045;-86
2023/09/12 11:25:20;;;;;;;10.63;7.78;;;;;;;;;;5042315;28;20133;-86
2023/09/12 11:28:04;;;;;;;10.82;8.40;;;;;;;;;;5042769;28;20109;-86
2023/09/12 11:30:31;;;;;;;10.60;7.43;;;;;;;;;;5042801;28;20046;-86
2023/09/12 11:32:58;;;;;;;12.68;7.85;;;;;;;;;;5043939;28;20056;-86
2023/09/12 11:35:26;;;;;;;9.57;7.93;;;;;;;;;;5044013;28;20053;-86
2023/09/12 11:37:54;;;;;;;13.48;7.50;;;;;;;;;;5042675;28;20076;-86
2023/09/12 11:40:26;;;;;;;10.45;7.53;;;;;;;;;;5043072;28;20374;-85
2023/09/12 11:43:14;;;;;;;9.23;7.72;;;;;;;;;;5042949;28;20052;-86
2023/09/12 11:48:58;;;;;;;10.60;7.85;;;;;;;;;;5009684;28;20061;-86
2023/09/12 12:07:42;;;;;;;11.93;8.35;;;;;;;;;;5032851;28;20240;-82
2023/09/12 12:10:09;;;;;;;11.50;8.50;;;;;;;;;;5028849;28;20045;-80
2023/09/12 12:12:36;;;;;;;11.55;8.02;;;;;;;;;;5032038;28;20053;-80
2023/09/12 12:15:04;;;;;;;11.68;7.90;;;;;;;;;;5032879;28;20485;-80
2023/09/12 12:17:31;;;;;;;10.00;7.78;;;;;;;;;;5035900;28;20045;-80
2023/09/12 12:19:57;;;;;;;12.73;8.30;;;;;;;;;;5034546;28;20125;-80
2023/09/12 12:22:24;;;;;;;13.00;8.20;;;;;;;;;;5036350;28;20052;-80
2023/09/12 12:24:52;;;;;;;11.48;7.70;;;;;;;;;;5037732;28;20406;-81
2023/09/12 12:27:18;;;;;;;10.98;8.05;;;;;;;;;;5037797;28;20662;-80
2023/09/12 12:29:46;;;;;;;12.30;7.97;;;;;;;;;;5034634;28;20049;-80
2023/09/12 12:32:16;;;;;;;9.73;7.80;;;;;;;;;;5036849;28;20507;-80
2023/09/12 12:34:48;;;;;;;11.25;7.78;;;;;;;;;;5036714;28;20041;-80
2023/09/12 12:37:14;;;;;;;13.23;8.13;;;;;;;;;;5038062;28;20050;-80
2023/09/12 12:39:43;;;;;;;11.45;7.35;;;;;;;;;;5037823;28;20129;-80
2023/09/12 12:42:11;;;;;;;10.35;7.90;;;;;;;;;;5038639;28;20041;-79
2023/09/12 12:44:40;;;;;;;9.43;7.90;;;;;;;;;;5026543;28;20052;-80
2023/09/12 12:47:09;;;;;;;8.65;7.15;;;;;;;;;;5031347;28;20534;-79
2023/09/12 12:49:40;;;;;;;12.80;7.90;;;;;;;;;;5031855;28;20041;-80
2023/09/12 12:52:06;;;;;;;10.45;7.70;;;;;;;;;;5036858;28;20132;-80
2023/09/12 12:54:33;;;;;;;11.95;7.30;;;;;;;;;;5036469;28;20442;-79
2023/09/12 12:57:01;;;;;;;11.93;7.65;;;;;;;;;;5034811;28;20087;-80
2023/09/12 12:59:34;;;;;;;10.18;6.97;;;;;;;;;;5039342;28;20049;-80
2023/09/12 13:02:01;;;;;;;9.85;7.50;;;;;;;;;;5039145;28;20374;-80
2023/09/12 13:04:27;;;;;;;11.85;7.50;;;;;;;;;;5035954;28;20579;-81
2023/09/12 13:06:54;;;;;;;10.98;7.78;;;;;;;;;;5037890;28;20047;-80
2023/09/12 13:09:20;;;;;;;11.82;7.50;;;;;;;;;;5037980;28;20051;-80
2023/09/12 13:11:47;;;;;;;12.80;7.35;;;;;;;;;;5039190;28;20052;-79
2023/09/12 13:14:14;;;;;;;8.85;6.80;;;;;;;;;;5038370;28;20061;-80
2023/09/12 13:16:41;;;;;;;10.02;7.05;;;;;;;;;;5030117;28;20049;-80
2023/09/12 13:19:08;;;;;;;8.82;7.68;;;;;;;;;;5034440;28;20493;-81
2023/09/12 13:21:35;;;;;;;9.68;7.47;;;;;;;;;;5038434;28;20048;-80
2023/09/12 13:24:01;;;;;;;10.65;7.18;;;;;;;;;;5032756;28;20046;-81
2023/09/12 13:26:28;;;;;;;10.52;6.68;;;;;;;;;;5029762;28;20505;-81
2023/09/12 13:28:55;;;;;;;7.68;6.60;;;;;;;;;;5024591;28;20059;-80
2023/09/12 13:31:22;;;;;;;9.50;6.30;;;;;;;;;;5025307;28;20051;-80
2023/09/12 13:33:49;;;;;;;8.63;6.40;;;;;;;;;;5025458;28;20045;-80
2023/09/12 13:36:16;;;;;;;8.27;6.20;;;;;;;;;;5025349;28;20048;-81
2023/09/12 13:38:42;;;;;;;8.05;6.07;;;;;;;;;;5028448;28;20371;-81
2023/09/12 13:41:09;;;;;;;8.98;6.72;;;;;;;;;;5034190;28;20049;-80
2023/09/12 13:43:36;;;;;;;12.07;6.22;;;;;;;;;;5039058;28;20046;-80
2023/09/12 13:46:03;;;;;;;8.75;6.05;;;;;;;;;;5040885;28;20052;-80
2023/09/12 13:48:30;;;;;;;8.98;6.72;;;;;;;;;;5039939;28;20049;-80
2023/09/12 13:50:58;;;;;;;8.25;6.45;;;;;;;;;;5036395;28;20052;-80
2023/09/12 13:53:24;;;;;;;9.60;6.03;;;;;;;;;;5035747;28;20049;-81
2023/09/12 13:55:51;;;;;;;9.23;5.93;;;;;;;;;;5035872;28;20048;-80
2023/09/12 13:58:17;;;;;;;7.25;5.95;;;;;;;;;;5036181;28;20041;-80
2023/09/12 14:00:45;;;;;;;9.85;6.25;;;;;;;;;;5036284;28;20077;-81
2023/09/12 14:03:11;;;;;;;7.85;5.97;;;;;;;;;;5036202;28;20394;-80
2023/09/12 14:05:38;;;;;;;9.27;6.35;;;;;;;;;;5035907;28;20050;-80
2023/09/12 14:08:06;;;;;;;8.25;6.00;;;;;;;;;;5035557;28;20140;-80
2023/09/12 14:10:33;;;;;;;6.90;5.65;;;;;;;;;;5035485;28;20055;-80
2023/09/12 14:12:59;;;;;;;9.77;6.68;;;;;;;;;;5036577;28;20077;-81
2023/09/12 14:15:26;;;;;;;10.18;6.50;;;;;;;;;;5036730;28;20108;-81
2023/09/12 14:17:53;;;;;;;12.38;6.55;;;;;;;;;;5038979;28;20655;-87
2023/09/12 14:20:21;;;;;;;8.00;6.30;;;;;;;;;;5040249;28;20060;-87
2023/09/12 14:22:47;;;;;;;8.05;5.93;;;;;;;;;;5039683;28;20045;-87
2023/09/12 15:01:46;;;;;;;11.30;7.07;;;;;;;;;;5086655;22;20071;-81
2023/09/12 15:04:13;;;;;;;8.40;6.38;;;;;;;;;;5087953;28;20072;-80
2023/09/12 15:06:39;;;;;;;9.50;6.20;;;;;;;;;;5089231;28;20049;-79
2023/09/12 15:09:06;;;;;;;8.75;6.65;;;;;;;;;;5088812;28;20087;-78
2023/09/12 15:11:33;;;;;;;9.43;6.68;;;;;;;;;;5089970;28;20128;-78
2023/09/12 15:14:02;;;;;;;10.57;6.78;;;;;;;;;;5087707;28;20056;-79
2023/09/12 15:16:31;;;;;;;9.88;6.85;;;;;;;;;;5088916;28;20044;-81
2023/09/12 15:18:59;;;;;;;9.45;6.85;;;;;;;;;;5088437;28;20040;-80
2023/09/12 15:21:25;;;;;;;8.55;6.70;;;;;;;;;;5088984;28;20075;-78
2023/09/12 15:23:52;;;;;;;7.82;6.90;;;;;;;;;;5089521;28;20053;-80
2023/09/12 15:26:18;;;;;;;8.75;6.60;;;;;;;;;;5089044;28;20452;-77
2023/09/12 15:28:45;;;;;;;13.43;6.47;;;;;;;;;;5088985;28;20102;-78